createdAt,value
2019-02-02T00:03:32.187Z,90.50
2019-02-02T00:06:12.164Z,90.20
2019-02-02T00:08:52.005Z,90.10
2019-02-02T00:11:32.068Z,89.70
2019-02-02T00:14:12.114Z,90.10
2019-02-02T00:16:51.965Z,90.10
2019-02-02T00:19:31.983Z,90.10
2019-02-02T00:22:15.695Z,90.10
2019-02-02T00:24:56.112Z,90.20
2019-02-02T00:27:41.497Z,90.50
2019-02-02T00:30:18.104Z,90.60
2019-02-02T00:32:57.954Z,90.90
2019-02-02T00:35:37.692Z,91.20
2019-02-02T00:38:17.801Z,91.30
2019-02-02T00:40:57.747Z,91.60
2019-02-02T00:43:38.497Z,91.50
2019-02-02T00:46:18.733Z,91.70
2019-02-02T00:48:58.739Z,91.90
2019-02-02T00:51:38.769Z,92.10
2019-02-02T00:54:18.935Z,92.30
2019-02-02T00:56:59.008Z,92.20
2019-02-02T00:59:39.841Z,91.60
2019-02-02T01:02:19.928Z,91.40
2019-02-02T01:04:59.881Z,91.30
2019-02-02T01:07:40.120Z,91.30
2019-02-02T01:10:20.256Z,91.00
2019-02-02T01:13:00.240Z,90.50
2019-02-02T01:15:40.331Z,90.40
2019-02-02T01:18:20.567Z,90.70
2019-02-02T01:23:43.153Z,90.90
2019-02-02T01:26:23.048Z,91.10
2019-02-02T01:29:03.288Z,91.10
2019-02-02T01:31:43.281Z,91.10
2019-02-02T01:34:23.473Z,91.00
2019-02-02T01:37:03.674Z,91.10
2019-02-02T01:39:43.802Z,91.10
2019-02-02T01:42:24.366Z,91.30
2019-02-02T01:45:04.549Z,91.60
2019-02-02T01:47:44.729Z,92.10
2019-02-02T01:50:24.719Z,92.30
2019-02-02T01:53:04.530Z,92.10
2019-02-02T01:55:44.606Z,92.00
2019-02-02T01:58:24.560Z,91.80
2019-02-02T02:01:05.121Z,91.70
2019-02-02T02:03:45.913Z,91.20
2019-02-02T02:06:25.993Z,91.20
2019-02-02T02:09:06.316Z,91.00
2019-02-02T02:11:47.077Z,90.90
2019-02-02T02:14:27.035Z,90.80
2019-02-02T02:17:06.983Z,90.90
2019-02-02T02:19:46.922Z,91.00
2019-02-02T02:22:27.017Z,90.80
2019-02-02T02:25:07.015Z,90.90
2019-02-02T02:27:46.906Z,90.80
2019-02-02T02:30:27.039Z,90.80
2019-02-02T02:33:06.880Z,91.00
2019-02-02T02:35:47.026Z,91.00
2019-02-02T02:38:27.086Z,90.90
2019-02-02T02:41:07.232Z,90.90
2019-02-02T02:43:47.282Z,90.70
2019-02-02T02:46:28.126Z,90.60
2019-02-02T02:49:08.253Z,90.90
2019-02-02T02:51:48.459Z,91.00
2019-02-02T02:54:28.444Z,91.20
2019-02-02T02:57:08.518Z,91.30
2019-02-02T02:59:48.363Z,91.00
2019-02-02T03:02:28.417Z,90.90
2019-02-02T03:05:08.555Z,91.20
2019-02-02T03:07:48.477Z,91.00
2019-02-02T03:10:28.381Z,91.20
2019-02-02T03:13:08.726Z,91.40
2019-02-02T03:15:48.662Z,91.50
2019-02-02T03:18:28.698Z,91.40
2019-02-02T03:21:08.591Z,91.30
2019-02-02T03:23:48.548Z,91.00
2019-02-02T03:26:28.729Z,90.70
2019-02-02T03:29:08.794Z,90.70
2019-02-02T03:31:48.972Z,90.50
2019-02-02T03:34:28.963Z,90.40
2019-02-02T03:37:18.228Z,90.10
2019-02-02T03:40:00.493Z,89.70
2019-02-02T03:42:40.598Z,89.90
2019-02-02T03:45:27.034Z,89.70
2019-02-02T03:48:07.674Z,89.90
2019-02-02T03:50:47.609Z,89.90
2019-02-02T03:56:08.841Z,90.10
2019-02-02T03:59:06.298Z,90.10
2019-02-02T04:01:41.377Z,90.20
2019-02-02T04:04:30.158Z,90.30
2019-02-02T04:07:09.940Z,90.40
2019-02-02T04:09:49.893Z,90.20
2019-02-02T04:15:34.682Z,90.90
2019-02-02T04:18:17.291Z,90.80
2019-02-02T04:20:57.489Z,91.10
2019-02-02T04:26:23.384Z,90.50
2019-02-02T04:29:17.308Z,90.40
2019-02-02T04:31:54.861Z,90.40
2019-02-02T04:34:34.592Z,90.40
2019-02-02T04:37:18.069Z,90.50
2019-02-02T04:39:59.151Z,90.20
2019-02-02T04:42:45.695Z,90.20
2019-02-02T04:45:26.284Z,90.20
2019-02-02T04:50:58.533Z,90.10
2019-02-02T04:53:38.326Z,90.10
2019-02-02T04:56:18.563Z,89.90
2019-02-02T04:58:58.526Z,89.70
2019-02-02T05:01:38.637Z,89.40
2019-02-02T05:04:18.449Z,89.00
2019-02-02T05:06:58.424Z,88.80
2019-02-02T05:09:38.629Z,88.80
2019-02-02T05:12:18.523Z,88.80
2019-02-02T05:14:58.847Z,89.20
2019-02-02T05:17:38.757Z,89.00
2019-02-02T05:20:19.109Z,89.40
2019-02-02T05:22:59.324Z,89.70
2019-02-02T05:25:39.305Z,90.10
2019-02-02T05:28:19.443Z,90.30
2019-02-02T05:30:59.404Z,90.80
2019-02-02T05:33:39.442Z,91.10
2019-02-02T05:36:19.212Z,91.40
2019-02-02T05:38:59.181Z,91.40
2019-02-02T05:41:39.140Z,91.20
2019-02-02T05:44:19.372Z,90.80
2019-02-02T05:47:06.541Z,90.50
2019-02-02T05:49:49.498Z,90.50
2019-02-02T05:52:28.841Z,90.80
2019-02-02T05:55:09.080Z,90.80
2019-02-02T05:57:49.085Z,90.80
2019-02-02T06:00:48.330Z,90.80
2019-02-02T06:03:28.138Z,91.30
2019-02-02T06:06:08.264Z,91.50
2019-02-02T06:08:48.433Z,91.30
2019-02-02T06:11:28.544Z,91.10
2019-02-02T06:14:08.435Z,90.70
2019-02-02T06:16:48.562Z,90.60
2019-02-02T06:19:28.849Z,90.80
2019-02-02T06:22:08.946Z,90.90
2019-02-02T06:24:49.147Z,90.90
2019-02-02T06:27:29.160Z,91.00
2019-02-02T06:30:09.364Z,91.10
2019-02-02T06:32:49.545Z,91.20
2019-02-02T06:35:29.445Z,91.00
2019-02-02T06:38:09.288Z,91.00
2019-02-02T06:40:49.371Z,90.90
2019-02-02T06:43:30.380Z,90.60
2019-02-02T06:46:10.419Z,90.40
2019-02-02T06:48:50.451Z,90.40
2019-02-02T06:51:30.651Z,90.20
2019-02-02T06:54:10.856Z,90.30
2019-02-02T06:56:50.892Z,90.20
2019-02-02T06:59:31.882Z,90.40
2019-02-02T07:02:11.986Z,90.20
2019-02-02T07:04:51.941Z,90.20
2019-02-02T07:07:32.065Z,90.10
2019-02-02T07:10:12.115Z,90.10
2019-02-02T07:12:52.118Z,90.20
2019-02-02T07:15:32.226Z,90.40
2019-02-02T07:18:12.258Z,90.40
2019-02-02T07:20:52.544Z,90.20
2019-02-02T07:23:32.961Z,90.20
2019-02-02T07:26:13.119Z,90.10
2019-02-02T07:28:53.366Z,89.40
2019-02-02T07:31:33.466Z,89.40
2019-02-02T07:34:13.487Z,89.70
2019-02-02T07:36:53.477Z,89.70
2019-02-02T07:39:33.573Z,90.10
2019-02-02T07:42:13.603Z,90.20
2019-02-02T07:44:53.659Z,90.80
2019-02-02T07:47:33.827Z,90.60
2019-02-02T07:50:13.956Z,90.10
2019-02-02T07:52:54.074Z,90.40
2019-02-02T07:55:34.115Z,90.20
2019-02-02T07:58:14.680Z,90.10
2019-02-02T08:00:55.435Z,90.50
2019-02-02T08:03:35.655Z,90.40
2019-02-02T08:06:15.566Z,90.20
2019-02-02T08:08:55.690Z,90.50
2019-02-02T08:11:35.643Z,90.80
2019-02-02T08:14:15.663Z,91.00
2019-02-02T08:16:55.845Z,91.30
2019-02-02T08:19:35.961Z,91.40
2019-02-02T08:22:15.948Z,91.50
2019-02-02T08:24:56.035Z,91.90
2019-02-02T08:27:35.985Z,91.70
2019-02-02T08:30:16.760Z,92.00
2019-02-02T08:32:57.269Z,91.60
2019-02-02T08:35:37.694Z,91.50
2019-02-02T08:38:18.051Z,91.30
2019-02-02T08:40:59.071Z,90.60
2019-02-02T08:43:39.186Z,89.70
2019-02-02T08:46:19.364Z,90.10
2019-02-02T08:48:59.923Z,90.20
2019-02-02T08:51:39.986Z,90.10
2019-02-02T08:54:19.958Z,89.90
2019-02-02T08:56:59.972Z,89.70
2019-02-02T08:59:40.293Z,89.20
2019-02-02T09:02:21.109Z,88.40
2019-02-02T09:05:02.176Z,87.90
2019-02-02T09:07:42.131Z,87.10
2019-02-02T09:10:22.481Z,87.90
2019-02-02T09:13:02.324Z,88.10
2019-02-02T09:15:43.559Z,87.30
2019-02-02T09:18:23.676Z,86.80
2019-02-02T09:21:04.130Z,85.60
2019-02-02T09:23:44.027Z,84.90
2019-02-02T09:26:23.951Z,85.60
2019-02-02T09:29:05.051Z,85.10
2019-02-02T09:31:45.303Z,85.10
2019-02-02T09:34:25.431Z,84.10
2019-02-02T09:37:05.536Z,83.40
2019-02-02T09:39:45.512Z,84.30
2019-02-02T09:42:25.575Z,85.50
2019-02-02T09:45:05.956Z,71.10
2019-02-02T09:47:45.964Z,62.20
2019-02-02T09:50:25.877Z,57.80
2019-02-02T09:53:06.006Z,53.70
2019-02-02T09:55:45.800Z,47.30
2019-02-02T09:58:25.894Z,42.60
2019-02-02T10:01:06.195Z,38.20
2019-02-02T10:03:46.335Z,35.70
2019-02-02T10:06:26.411Z,35.90
2019-02-02T10:09:07.430Z,35.30
2019-02-02T10:11:49.491Z,33.30
2019-02-02T10:14:29.584Z,30.20
2019-02-02T10:17:09.804Z,27.70
2019-02-02T10:19:50.072Z,25.60
2019-02-02T10:22:30.107Z,23.10
2019-02-02T10:25:30.233Z,22.20
2019-02-02T10:28:14.130Z,21.10
2019-02-02T10:30:54.639Z,21.80
2019-02-02T10:33:34.611Z,22.10
2019-02-02T10:36:14.661Z,21.00
2019-02-02T10:38:42.625Z,20.10
2019-02-02T10:41:22.679Z,19.30
2019-02-02T10:44:02.638Z,19.20
2019-02-02T10:46:42.829Z,18.40
2019-02-02T10:49:23.023Z,17.10
2019-02-02T10:52:03.111Z,16.50
2019-02-02T10:54:43.051Z,16.20
2019-02-02T10:57:23.264Z,15.50
2019-02-02T11:00:03.947Z,15.10
2019-02-02T11:02:44.391Z,14.40
2019-02-02T11:05:24.503Z,13.70
2019-02-02T11:08:04.918Z,13.10
2019-02-02T11:10:45.570Z,13.10
2019-02-02T11:13:26.342Z,14.40
2019-02-02T11:16:08.462Z,15.10
2019-02-02T11:18:48.321Z,17.30
2019-02-02T11:21:28.913Z,19.00
2019-02-02T11:24:09.744Z,20.90
2019-02-02T11:26:49.728Z,20.60
2019-02-02T11:29:30.013Z,21.70
2019-02-02T11:32:09.921Z,22.80
2019-02-02T11:34:49.938Z,24.10
2019-02-02T11:37:31.184Z,26.00
2019-02-02T11:40:11.121Z,27.30
2019-02-02T11:42:51.330Z,30.60
2019-02-02T11:45:31.513Z,33.30
2019-02-02T11:48:11.615Z,36.20
2019-02-02T11:50:51.621Z,39.20
2019-02-02T11:53:31.512Z,41.50
2019-02-02T11:56:11.710Z,43.60
2019-02-02T11:58:51.697Z,46.10
2019-02-02T12:01:31.993Z,47.90
2019-02-02T12:04:12.603Z,50.50
2019-02-02T12:06:52.761Z,52.30
2019-02-02T12:09:32.956Z,53.90
2019-02-02T12:12:13.094Z,55.50
2019-02-02T12:14:53.080Z,56.60
2019-02-02T12:17:33.236Z,57.20
2019-02-02T12:20:13.362Z,57.80
2019-02-02T12:22:53.325Z,58.60
2019-02-02T12:25:33.489Z,59.30
2019-02-02T12:28:14.100Z,59.20
2019-02-02T12:30:54.091Z,59.50
2019-02-02T12:33:34.447Z,59.60
2019-02-02T12:36:14.201Z,59.90
2019-02-02T12:38:54.179Z,59.90
2019-02-02T12:41:34.189Z,60.50
2019-02-02T12:44:14.327Z,59.60
2019-02-02T12:46:54.139Z,59.30
2019-02-02T12:49:34.037Z,59.30
2019-02-02T12:52:14.035Z,58.10
2019-02-02T12:54:54.062Z,56.60
2019-02-02T12:57:34.243Z,55.50
2019-02-02T13:00:14.322Z,54.00
2019-02-02T13:02:54.292Z,53.50
2019-02-02T13:05:34.356Z,53.40
2019-02-02T13:08:14.215Z,54.00
2019-02-02T13:10:53.959Z,53.90
2019-02-02T13:13:34.094Z,54.80
2019-02-02T13:16:14.458Z,54.90
2019-02-02T13:18:54.446Z,55.40
2019-02-02T13:21:34.501Z,55.10
2019-02-02T13:24:14.584Z,56.00
2019-02-02T13:26:54.740Z,57.50
2019-02-02T13:29:34.984Z,57.70
2019-02-02T13:32:15.203Z,58.60
2019-02-02T13:34:56.719Z,59.50
2019-02-02T13:37:37.155Z,59.60
2019-02-02T13:40:17.477Z,59.60
2019-02-02T13:42:57.307Z,60.90
2019-02-02T13:45:37.593Z,63.70
2019-02-02T13:48:17.592Z,63.80
2019-02-02T13:50:57.583Z,64.00
2019-02-02T13:53:37.621Z,64.20
2019-02-02T13:56:17.993Z,63.70
2019-02-02T13:58:59.106Z,63.50
2019-02-02T14:01:42.313Z,61.20
2019-02-02T14:04:21.310Z,58.90
2019-02-02T14:07:01.414Z,58.40
2019-02-02T14:09:41.453Z,59.80
2019-02-02T14:12:21.502Z,59.20
2019-02-02T14:15:02.537Z,58.90
2019-02-02T14:17:43.508Z,55.50
2019-02-02T14:20:23.456Z,56.40
2019-02-02T14:23:03.642Z,58.00
2019-02-02T14:25:43.846Z,58.10
2019-02-02T14:28:28.455Z,58.40
2019-02-02T14:31:05.823Z,58.40
2019-02-02T14:33:45.990Z,59.60
2019-02-02T14:36:26.239Z,59.60
2019-02-02T14:39:06.159Z,60.50
2019-02-02T14:41:48.235Z,60.90
2019-02-02T14:44:28.354Z,61.00
2019-02-02T14:47:08.643Z,61.80
2019-02-02T14:49:49.002Z,62.20
2019-02-02T14:52:29.175Z,62.70
2019-02-02T14:55:09.119Z,62.90
2019-02-02T14:57:49.170Z,63.30
2019-02-02T15:00:29.221Z,63.30
2019-02-02T15:03:09.054Z,63.80
2019-02-02T15:05:49.208Z,63.30
2019-02-02T15:08:29.472Z,64.20
2019-02-02T15:11:09.514Z,64.20
2019-02-02T15:13:49.472Z,64.80
2019-02-02T15:16:29.702Z,65.70
2019-02-02T15:19:09.700Z,66.30
2019-02-02T15:21:49.903Z,66.80
2019-02-02T15:24:30.218Z,67.70
2019-02-02T15:27:10.119Z,68.30
2019-02-02T15:29:50.647Z,68.50
2019-02-02T15:32:31.236Z,69.10
2019-02-02T15:35:05.647Z,69.60
2019-02-02T15:37:46.487Z,69.80
2019-02-02T15:40:26.524Z,70.70
2019-02-02T15:43:06.645Z,71.30
2019-02-02T15:45:46.791Z,71.80
2019-02-02T15:48:26.857Z,72.40
2019-02-02T15:51:07.697Z,73.50
2019-02-02T15:53:48.810Z,74.30
2019-02-02T15:56:29.015Z,75.00
2019-02-02T15:59:08.974Z,75.60
2019-02-02T16:01:49.342Z,76.10
2019-02-02T16:04:29.355Z,76.10
2019-02-02T16:07:09.578Z,76.10
2019-02-02T16:09:50.405Z,76.50
2019-02-02T16:12:30.741Z,77.30
2019-02-02T16:15:10.599Z,77.60
2019-02-02T16:17:52.551Z,77.60
2019-02-02T16:20:34.399Z,77.80
2019-02-02T16:23:14.379Z,78.20
2019-02-02T16:25:54.406Z,78.40
2019-02-02T16:28:34.461Z,78.70
2019-02-02T16:31:14.967Z,78.90
2019-02-02T16:34:02.334Z,78.90
2019-02-02T16:36:41.326Z,78.70
2019-02-02T16:39:21.259Z,79.30
2019-02-02T16:42:01.417Z,79.50
2019-02-02T16:44:41.616Z,79.10
2019-02-02T16:47:21.714Z,79.10
2019-02-02T16:50:03.478Z,79.90
2019-02-02T16:52:43.448Z,79.90
2019-02-02T16:55:23.581Z,81.50
2019-02-02T16:58:03.617Z,81.00
2019-02-02T17:00:47.775Z,80.60
2019-02-02T17:03:27.768Z,81.00
2019-02-02T17:06:08.599Z,80.60
2019-02-02T17:08:48.874Z,81.40
2019-02-02T17:11:28.810Z,81.70
2019-02-02T17:14:09.047Z,81.90
2019-02-02T17:16:48.930Z,81.90
2019-02-02T17:19:28.797Z,83.20
2019-02-02T17:22:08.932Z,82.30
2019-02-02T17:24:49.041Z,83.60
2019-02-02T17:27:29.274Z,83.80
2019-02-02T17:30:09.779Z,85.50
2019-02-02T17:32:50.518Z,86.20
2019-02-02T17:35:30.774Z,86.80
2019-02-02T17:38:10.887Z,85.60
2019-02-02T17:40:50.958Z,86.20
2019-02-02T17:43:31.140Z,86.20
2019-02-02T17:46:15.134Z,85.80
2019-02-02T17:48:56.359Z,85.80
2019-02-02T17:51:36.433Z,87.50
2019-02-02T17:54:16.535Z,87.30
2019-02-02T17:56:56.685Z,86.90
2019-02-02T17:59:38.778Z,86.60
2019-02-02T18:02:06.705Z,85.60
2019-02-02T18:04:41.021Z,85.10
2019-02-02T18:07:04.266Z,84.70
2019-02-02T18:09:32.085Z,84.90
2019-02-02T18:12:00.035Z,84.70
2019-02-02T18:14:27.773Z,84.50
2019-02-02T18:16:55.557Z,84.50
2019-02-02T18:19:23.333Z,84.00
2019-02-02T18:21:51.105Z,83.80
2019-02-02T18:24:18.893Z,84.50
2019-02-02T18:26:46.630Z,84.30
2019-02-02T18:29:14.498Z,84.50
2019-02-02T18:31:42.366Z,85.10
2019-02-02T18:34:10.287Z,85.30
2019-02-02T18:36:38.143Z,85.60
2019-02-02T18:39:07.963Z,85.50
2019-02-02T18:41:35.816Z,85.80
2019-02-02T18:44:03.665Z,86.40
2019-02-02T18:46:31.624Z,86.20
2019-02-02T18:48:59.446Z,86.90
2019-02-02T18:51:27.203Z,87.50
2019-02-02T18:53:54.991Z,87.90
2019-02-02T18:56:22.707Z,87.10
2019-02-02T18:58:50.577Z,86.60
2019-02-02T19:01:18.347Z,86.60
2019-02-02T19:03:46.075Z,86.60
2019-02-02T19:06:13.862Z,86.80
2019-02-02T19:08:41.663Z,87.50
2019-02-02T19:11:09.500Z,88.10
2019-02-02T19:13:37.716Z,88.40
2019-02-02T19:16:05.473Z,88.40
2019-02-02T19:18:33.558Z,88.20
2019-02-02T19:21:01.889Z,87.50
2019-02-02T19:23:29.679Z,86.80
2019-02-02T19:25:57.476Z,86.80
2019-02-02T19:28:28.382Z,86.90
2019-02-02T19:30:54.917Z,87.90
2019-02-02T19:33:22.578Z,88.20
2019-02-02T19:35:50.466Z,88.40
2019-02-02T19:38:18.358Z,89.00
2019-02-02T19:40:46.521Z,89.20
2019-02-02T19:43:14.530Z,89.70
2019-02-02T19:45:42.356Z,89.90
2019-02-02T19:48:10.142Z,90.20
2019-02-02T19:50:38.035Z,90.40
2019-02-02T19:53:06.018Z,90.80
2019-02-02T19:55:34.064Z,90.70
2019-02-02T19:58:02.382Z,90.70
2019-02-02T20:00:31.559Z,90.50
2019-02-02T20:03:00.234Z,90.30
2019-02-02T20:05:29.270Z,89.90
2019-02-02T20:07:57.161Z,89.70
2019-02-02T20:10:25.144Z,89.70
2019-02-02T20:12:53.052Z,90.10
2019-02-02T20:15:22.798Z,90.40
2019-02-02T20:17:50.854Z,90.50
2019-02-02T20:20:20.051Z,90.40
2019-02-02T20:22:48.291Z,90.20
2019-02-02T20:25:16.222Z,90.10
2019-02-02T20:27:44.211Z,89.90
2019-02-02T20:30:14.864Z,89.60
2019-02-02T20:32:42.733Z,89.40
2019-02-02T20:35:11.800Z,89.20
2019-02-02T20:37:40.511Z,89.00
2019-02-02T20:40:10.951Z,88.60
2019-02-02T20:42:38.980Z,88.60
2019-02-02T20:45:09.265Z,88.40
2019-02-02T20:47:37.315Z,88.20
2019-02-02T20:50:08.057Z,88.10
2019-02-02T20:52:46.693Z,87.90
2019-02-02T20:55:07.742Z,87.70
2019-02-02T20:57:36.744Z,87.70
2019-02-02T21:00:07.746Z,87.70
2019-02-02T21:02:36.155Z,87.70
2019-02-02T21:05:05.902Z,87.70
2019-02-02T21:07:33.686Z,87.70
2019-02-02T21:10:01.322Z,87.90
2019-02-02T21:12:29.712Z,88.10
2019-02-02T21:14:57.723Z,88.10
2019-02-02T21:17:25.744Z,88.10
2019-02-02T21:19:53.578Z,87.90
2019-02-02T21:22:21.594Z,87.70
2019-02-02T21:24:49.480Z,87.90
2019-02-02T21:27:17.278Z,88.10
2019-02-02T21:29:45.129Z,88.10
2019-02-02T21:32:12.981Z,88.20
2019-02-02T21:34:40.898Z,88.20
2019-02-02T21:37:08.740Z,88.20
2019-02-02T21:39:36.504Z,88.10
2019-02-02T21:42:04.505Z,87.90
2019-02-02T21:44:42.580Z,87.90
2019-02-02T21:47:01.863Z,89.60
2019-02-02T21:49:29.690Z,90.10
2019-02-02T21:51:57.358Z,90.40
2019-02-02T21:54:25.824Z,90.80
2019-02-02T21:56:53.791Z,91.10
2019-02-02T21:59:21.540Z,91.30
2019-02-02T22:01:49.364Z,91.60
2019-02-02T22:04:17.246Z,91.80
2019-02-02T22:06:44.947Z,91.90
2019-02-02T22:09:12.718Z,91.90
2019-02-02T22:11:40.504Z,91.60
2019-02-02T22:14:08.337Z,91.20
2019-02-02T22:16:36.139Z,90.80
2019-02-02T22:19:05.092Z,90.70
2019-02-02T22:21:32.936Z,90.60
2019-02-02T22:24:00.616Z,90.40
2019-02-02T22:26:28.409Z,90.30
2019-02-02T22:28:57.891Z,90.10
2019-02-02T22:31:25.679Z,89.90
2019-02-02T22:33:53.507Z,89.90
2019-02-02T22:36:27.511Z,89.90
2019-02-02T22:38:51.740Z,89.60
2019-02-02T22:41:19.747Z,89.20
2019-02-02T22:43:47.439Z,89.00
2019-02-02T22:46:15.250Z,88.60
2019-02-02T22:48:42.985Z,88.60
2019-02-02T22:51:10.845Z,88.40
2019-02-02T22:53:38.571Z,88.60
2019-02-02T22:56:06.411Z,88.20
2019-02-02T22:58:34.126Z,88.20
2019-02-02T23:01:19.367Z,87.90
2019-02-02T23:04:10.132Z,87.50
2019-02-02T23:07:25.504Z,87.50
2019-02-02T23:10:33.687Z,87.50
2019-02-02T23:13:27.904Z,87.90
2019-02-02T23:16:30.480Z,87.90
2019-02-02T23:18:58.953Z,87.70
2019-02-02T23:21:27.212Z,87.50
2019-02-02T23:23:55.167Z,87.50
2019-02-02T23:26:23.060Z,87.30
2019-02-02T23:28:50.895Z,87.10
2019-02-02T23:31:18.819Z,87.10
2019-02-02T23:33:46.543Z,86.90
2019-02-02T23:36:14.263Z,86.80
2019-02-02T23:38:41.992Z,86.80
2019-02-02T23:41:09.694Z,86.80
2019-02-02T23:43:37.523Z,86.60
2019-02-02T23:46:05.347Z,86.40
2019-02-02T23:48:33.100Z,86.80
2019-02-02T23:51:00.810Z,86.80
2019-02-02T23:53:28.549Z,86.80
2019-02-02T23:55:56.255Z,86.80
2019-02-02T23:58:23.991Z,86.90
